• Join FlightAware (Why Join?)
  • Login
  • US Flag 
01:49PM EST


 

Airport Tracker/Info


-or-


 

Live Flight TrackerFlight Track Log ✈ EJM124 ✈ 18-Jun-2013 ✈ KILG - KBWI

Flight Track Log - Related Links

Times and Time Zones

All times are in EDT time to prevent confusion due to time zone crossing. See the EJM124 flight status page for this flight to view local times or setup timezone preferences in your user account.

Time Position Orientation Groundspeed Altitude Reporting Facility
EDT Latitude Longitude Course Direction KTS MPH feet Rate Location/Type
03:50PM 39.7167 -75.5833 360° North 230 265 2,400  Level Philadelphia TRACON
03:51PM 39.7167 -75.6667 270° West 248 285 3,600 2,340 Climbing Philadelphia TRACON
03:52PM 39.7167 -75.7500 270° West 255 293 7,100 1,920 Climbing Philadelphia TRACON
03:54PM 39.7333 -75.9667 276° West 276 318 10,000 840 Climbing Potomac TRACON
03:56PM 39.7333 -76.0667 270° West 267 307 10,000  Level Potomac TRACON
03:57PM 39.7333 -76.1667 270° West 267 307 10,000 -120 Level Potomac TRACON
03:58PM 39.6833 -76.2500 232° Southwest 284 327 9,800 -660 Descending Potomac TRACON
03:59PM 39.6500 -76.3333 243° Southwest 278 320 8,700 -1,140 Descending Potomac TRACON
04:00PM 39.6000 -76.4167 232° Southwest 283 326 7,600 -1,080 Descending Potomac TRACON
04:01PM 39.5500 -76.5000 232° Southwest 269 310 6,600 -1,020 Descending Potomac TRACON
04:01PM 39.5167 -76.5667 237° Southwest 278 320 5,700 -840 Descending Potomac TRACON
04:03PM 39.4500 -76.6500 224° Southwest 276 318 5,000 -600 Descending Potomac TRACON
04:03PM 39.4167 -76.7167 237° Southwest 277 319 4,500 -540 Descending Potomac TRACON
04:05PM 39.3500 -76.7833 218° Southwest 270 311 4,000 -900 Descending Potomac TRACON
04:05PM 39.3000 -76.8333 218° Southwest 265 305 2,800 -900 Descending Potomac TRACON
04:07PM 39.2333 -76.8833 210° Southwest 214 246 2,200 -420 Descending Potomac TRACON
04:08PM 39.1833 -76.8500 153° Southeast 183 211 2,000 -180 Descending Potomac TRACON
04:08PM 39.1833 -76.8000 90° East 156 180 1,900 -480 Descending Potomac TRACON
04:09PM 39.1833 -76.7667 90° East 120 138 1,200 -660 Descending Potomac TRACON
04:10PM 39.1833 -76.7167 90° East 116 133 600 -600 Descending Potomac TRACON